createdAt,value
2019-02-20T00:01:02.900Z,8.00
2019-02-20T00:02:07.963Z,7.90
2019-02-20T00:03:13.334Z,7.90
2019-02-20T00:04:18.337Z,7.90
2019-02-20T00:05:23.382Z,7.80
2019-02-20T00:06:29.080Z,7.80
2019-02-20T00:07:34.245Z,7.80
2019-02-20T00:08:39.459Z,7.80
2019-02-20T00:09:44.601Z,7.70
2019-02-20T00:10:49.681Z,7.70
2019-02-20T00:11:54.944Z,7.70
2019-02-20T00:13:00.204Z,7.70
2019-02-20T00:14:06.112Z,7.70
2019-02-20T00:15:11.181Z,7.70
2019-02-20T00:16:16.464Z,7.70
2019-02-20T00:17:26.396Z,7.60
2019-02-20T00:18:31.428Z,7.60
2019-02-20T00:19:36.733Z,7.60
2019-02-20T00:20:42.858Z,7.60
2019-02-20T00:21:47.801Z,7.60
2019-02-20T00:22:56.203Z,7.50
2019-02-20T00:24:04.085Z,7.50
2019-02-20T00:25:09.231Z,7.50
2019-02-20T00:26:13.982Z,7.50
2019-02-20T00:27:18.974Z,7.50
2019-02-20T00:28:24.004Z,7.50
2019-02-20T00:29:29.005Z,7.50
2019-02-20T00:30:36.315Z,7.50
2019-02-20T00:31:41.348Z,7.40
2019-02-20T00:32:46.048Z,7.40
2019-02-20T00:33:53.890Z,7.40
2019-02-20T00:34:58.596Z,7.50
2019-02-20T00:36:03.351Z,7.50
2019-02-20T00:37:08.160Z,7.50
2019-02-20T00:38:13.179Z,7.50
2019-02-20T00:39:18.368Z,7.50
2019-02-20T00:40:23.184Z,7.50
2019-02-20T00:41:28.081Z,7.50
2019-02-20T00:42:36.176Z,7.50
2019-02-20T00:43:45.614Z,7.40
2019-02-20T00:45:07.281Z,7.40
2019-02-20T00:46:40.181Z,7.40
2019-02-20T00:48:07.701Z,7.50
2019-02-20T00:49:16.359Z,7.40
2019-02-20T00:50:22.398Z,7.40
2019-02-20T00:51:39.144Z,7.50
2019-02-20T00:52:50.179Z,7.50
2019-02-20T00:54:01.370Z,7.50
2019-02-20T00:55:06.844Z,7.50
2019-02-20T00:56:11.711Z,7.40
2019-02-20T00:57:16.401Z,7.40
2019-02-20T00:58:21.444Z,7.40
2019-02-20T00:59:29.275Z,7.40
2019-02-20T01:00:34.651Z,7.30
2019-02-20T01:01:39.384Z,7.30
2019-02-20T01:02:44.155Z,7.30
2019-02-20T01:03:48.928Z,7.30
2019-02-20T01:04:53.960Z,7.30
2019-02-20T01:05:58.753Z,7.30
2019-02-20T01:07:03.843Z,7.20
2019-02-20T01:08:08.586Z,7.20
2019-02-20T01:09:13.399Z,7.20
2019-02-20T01:10:20.812Z,7.20
2019-02-20T01:11:27.782Z,7.20
2019-02-20T01:12:37.027Z,7.20
2019-02-20T01:13:41.722Z,7.20
2019-02-20T01:14:46.725Z,7.20
2019-02-20T01:15:51.606Z,7.20
2019-02-20T01:17:00.185Z,7.20
2019-02-20T01:18:10.123Z,7.20
2019-02-20T01:19:14.832Z,7.20
2019-02-20T01:20:19.670Z,7.20
2019-02-20T01:21:24.394Z,7.20
2019-02-20T01:22:30.196Z,7.20
2019-02-20T01:23:35.387Z,7.30
2019-02-20T01:24:40.067Z,7.20
2019-02-20T01:25:45.094Z,7.20
2019-02-20T01:26:50.219Z,7.20
2019-02-20T01:27:55.187Z,7.30
2019-02-20T01:28:59.888Z,7.30
2019-02-20T01:30:05.020Z,7.30
2019-02-20T01:31:10.186Z,7.30
2019-02-20T01:32:15.158Z,7.30
2019-02-20T01:33:19.914Z,7.30
2019-02-20T01:34:24.615Z,7.30
2019-02-20T01:35:29.347Z,7.30
2019-02-20T01:36:34.197Z,7.30
2019-02-20T01:37:38.904Z,7.30
2019-02-20T01:38:43.876Z,7.30
2019-02-20T01:39:49.562Z,7.30
2019-02-20T01:40:54.823Z,7.30
2019-02-20T01:41:59.623Z,7.30
2019-02-20T01:43:04.347Z,7.20
2019-02-20T01:44:09.087Z,7.20
2019-02-20T01:45:13.889Z,7.20
2019-02-20T01:46:18.615Z,7.20
2019-02-20T01:47:23.621Z,7.20
2019-02-20T01:48:28.362Z,7.20
2019-02-20T01:49:33.195Z,7.20
2019-02-20T01:50:37.956Z,7.20
2019-02-20T01:51:42.673Z,7.20
2019-02-20T01:52:47.504Z,7.10
2019-02-20T01:53:52.637Z,7.10
2019-02-20T01:54:57.702Z,7.10
2019-02-20T01:56:03.312Z,7.10
2019-02-20T01:57:08.116Z,7.10
2019-02-20T01:58:13.077Z,7.10
2019-02-20T01:59:21.308Z,7.10
2019-02-20T02:00:26.203Z,7.10
2019-02-20T02:01:31.618Z,7.10
2019-02-20T02:02:36.352Z,7.10
2019-02-20T02:03:41.170Z,7.00
2019-02-20T02:04:45.974Z,7.00
2019-02-20T02:05:50.997Z,7.00
2019-02-20T02:06:56.129Z,7.00
2019-02-20T02:08:01.534Z,7.00
2019-02-20T02:09:07.931Z,7.00
2019-02-20T02:10:12.873Z,7.00
2019-02-20T02:11:17.681Z,7.00
2019-02-20T02:12:22.396Z,7.00
2019-02-20T02:13:27.449Z,7.00
2019-02-20T02:14:32.484Z,7.00
2019-02-20T02:15:37.784Z,7.00
2019-02-20T02:16:42.798Z,7.00
2019-02-20T02:17:47.546Z,7.00
2019-02-20T02:18:52.757Z,7.00
2019-02-20T02:19:57.799Z,7.00
2019-02-20T02:21:02.586Z,7.00
2019-02-20T02:22:07.365Z,7.00
2019-02-20T02:23:19.645Z,7.00
2019-02-20T02:24:18.487Z,6.90
2019-02-20T02:25:23.241Z,7.00
2019-02-20T02:26:28.590Z,7.00
2019-02-20T02:27:33.477Z,7.00
2019-02-20T02:28:38.268Z,7.00
2019-02-20T02:29:43.187Z,7.00
2019-02-20T02:30:48.283Z,7.00
2019-02-20T02:31:53.364Z,7.00
2019-02-20T02:32:58.116Z,7.00
2019-02-20T02:34:02.880Z,7.00
2019-02-20T02:35:07.728Z,7.00
2019-02-20T02:36:12.454Z,7.10
2019-02-20T02:37:17.216Z,7.00
2019-02-20T02:38:22.715Z,7.00
2019-02-20T02:39:27.498Z,7.00
2019-02-20T02:40:32.248Z,7.00
2019-02-20T02:41:36.973Z,7.00
2019-02-20T02:42:41.902Z,7.00
2019-02-20T02:43:46.690Z,7.00
2019-02-20T02:44:51.777Z,7.00
2019-02-20T02:45:56.469Z,7.00
2019-02-20T02:47:01.227Z,7.20
2019-02-20T02:48:06.091Z,7.00
2019-02-20T02:49:10.884Z,7.10
2019-02-20T02:50:15.790Z,7.10
2019-02-20T02:51:20.839Z,7.00
2019-02-20T02:52:25.597Z,7.10
2019-02-20T02:53:31.111Z,7.10
2019-02-20T02:54:40.176Z,7.10
2019-02-20T02:55:44.934Z,7.10
2019-02-20T02:56:49.796Z,7.10
2019-02-20T02:57:54.501Z,7.10
2019-02-20T02:58:59.205Z,7.10
2019-02-20T03:00:04.776Z,7.10
2019-02-20T03:01:09.744Z,7.10
2019-02-20T03:02:14.833Z,7.10
2019-02-20T03:03:19.915Z,7.20
2019-02-20T03:04:24.685Z,7.20
2019-02-20T03:05:29.428Z,7.10
2019-02-20T03:06:34.348Z,7.10
2019-02-20T03:07:39.060Z,7.10
2019-02-20T03:08:43.809Z,7.10
2019-02-20T03:09:49.096Z,7.10
2019-02-20T03:10:53.892Z,7.20
2019-02-20T03:11:59.056Z,7.20
2019-02-20T03:13:03.908Z,7.20
2019-02-20T03:14:09.081Z,7.20
2019-02-20T03:15:14.014Z,7.20
2019-02-20T03:16:18.737Z,7.10
2019-02-20T03:17:25.472Z,7.20
2019-02-20T03:18:30.189Z,7.20
2019-02-20T03:19:34.912Z,7.10
2019-02-20T03:20:39.634Z,7.00
2019-02-20T03:21:44.410Z,7.00
2019-02-20T03:22:49.156Z,6.90
2019-02-20T03:23:54.109Z,6.90
2019-02-20T03:24:58.833Z,6.90
2019-02-20T03:26:03.879Z,6.90
2019-02-20T03:27:08.922Z,6.80
2019-02-20T03:28:13.717Z,6.80
2019-02-20T03:29:18.767Z,6.80
2019-02-20T03:30:23.475Z,6.70
2019-02-20T03:31:28.220Z,6.80
2019-02-20T03:32:33.598Z,6.80
2019-02-20T03:33:38.396Z,6.80
2019-02-20T03:34:43.284Z,6.70
2019-02-20T03:35:48.405Z,6.70
2019-02-20T03:36:53.420Z,6.70
2019-02-20T03:37:58.182Z,6.60
2019-02-20T03:39:03.655Z,6.60
2019-02-20T03:40:08.653Z,6.70
2019-02-20T03:41:13.398Z,6.60
2019-02-20T03:42:18.428Z,6.70
2019-02-20T03:43:23.164Z,6.70
2019-02-20T03:44:33.327Z,6.60
2019-02-20T03:45:38.138Z,6.70
2019-02-20T03:46:42.866Z,6.60
2019-02-20T03:47:48.088Z,6.70
2019-02-20T03:48:52.834Z,6.70
2019-02-20T03:50:00.318Z,6.70
2019-02-20T03:51:05.046Z,7.00
2019-02-20T03:52:09.957Z,6.70
2019-02-20T03:53:14.876Z,6.70
2019-02-20T03:54:22.452Z,6.70
2019-02-20T03:55:27.109Z,6.70
2019-02-20T03:56:32.183Z,6.70
2019-02-20T03:57:41.285Z,6.80
2019-02-20T03:58:46.028Z,6.70
2019-02-20T03:59:50.860Z,6.80
2019-02-20T04:00:56.061Z,6.80
2019-02-20T04:02:00.958Z,6.80
2019-02-20T04:03:05.668Z,6.80
2019-02-20T04:04:10.448Z,6.80
2019-02-20T04:05:15.308Z,7.10
2019-02-20T04:06:20.288Z,6.80
2019-02-20T04:07:26.014Z,6.80
2019-02-20T04:08:31.238Z,6.80
2019-02-20T04:09:36.316Z,6.90
2019-02-20T04:10:41.486Z,6.90
2019-02-20T04:11:46.440Z,6.90
2019-02-20T04:12:51.350Z,6.80
2019-02-20T04:13:56.501Z,6.90
2019-02-20T04:15:01.337Z,6.90
2019-02-20T04:16:06.429Z,6.80
2019-02-20T04:17:12.013Z,6.80
2019-02-20T04:18:17.035Z,6.80
2019-02-20T04:19:21.788Z,6.90
2019-02-20T04:20:26.675Z,6.90
2019-02-20T04:21:31.961Z,6.80
2019-02-20T04:22:36.967Z,6.80
2019-02-20T04:23:41.870Z,6.90
2019-02-20T04:24:46.829Z,6.80
2019-02-20T04:25:51.690Z,6.80
2019-02-20T04:26:57.314Z,6.80
2019-02-20T04:28:02.266Z,6.80
2019-02-20T04:29:07.212Z,6.90
2019-02-20T04:30:12.094Z,6.90
2019-02-20T04:31:17.337Z,6.90
2019-02-20T04:32:22.889Z,6.90
2019-02-20T04:33:28.424Z,6.90
2019-02-20T04:34:36.534Z,6.90
2019-02-20T04:35:41.300Z,6.80
2019-02-20T04:36:48.444Z,6.80
2019-02-20T04:37:53.599Z,6.80
2019-02-20T04:38:58.655Z,6.90
2019-02-20T04:40:03.863Z,7.20
2019-02-20T04:41:08.690Z,7.00
2019-02-20T04:44:20.613Z,7.00
2019-02-20T04:45:25.595Z,7.00
2019-02-20T04:46:30.349Z,7.00
2019-02-20T04:47:35.086Z,7.00
2019-02-20T04:48:41.874Z,7.00
2019-02-20T04:49:46.800Z,7.00
2019-02-20T04:50:51.495Z,7.00
2019-02-20T04:51:56.310Z,7.00
2019-02-20T04:53:01.044Z,6.80
2019-02-20T04:54:13.545Z,6.80
2019-02-20T04:55:17.139Z,6.90
2019-02-20T04:56:21.889Z,6.90
2019-02-20T04:57:26.658Z,7.00
2019-02-20T04:58:31.371Z,6.90
2019-02-20T04:59:39.253Z,6.80
2019-02-20T05:00:44.590Z,6.90
2019-02-20T05:01:49.643Z,7.00
2019-02-20T05:02:54.564Z,6.90
2019-02-20T05:03:59.440Z,6.90
2019-02-20T05:05:04.265Z,6.90
2019-02-20T05:06:11.805Z,6.90
2019-02-20T05:07:16.793Z,6.90
2019-02-20T05:08:21.679Z,7.00
2019-02-20T05:09:26.391Z,7.00
2019-02-20T05:10:31.514Z,7.00
2019-02-20T05:11:36.765Z,7.00
2019-02-20T05:12:42.394Z,7.00
2019-02-20T05:13:47.438Z,7.00
2019-02-20T05:14:52.185Z,7.00
2019-02-20T05:15:56.877Z,6.80
2019-02-20T05:17:01.716Z,7.10
2019-02-20T05:18:06.427Z,6.90
2019-02-20T05:19:11.676Z,7.00
2019-02-20T05:20:18.882Z,7.00
2019-02-20T05:21:23.595Z,7.10
2019-02-20T05:22:28.695Z,6.90
2019-02-20T05:23:33.480Z,6.90
2019-02-20T05:24:38.219Z,7.00
2019-02-20T05:25:43.419Z,6.90
2019-02-20T05:26:48.367Z,6.80
2019-02-20T05:27:53.065Z,6.90
2019-02-20T05:28:57.983Z,6.80
2019-02-20T05:30:03.095Z,6.90
2019-02-20T05:31:07.808Z,6.90
2019-02-20T05:32:12.975Z,7.00
2019-02-20T05:33:17.778Z,6.90
2019-02-20T05:34:24.789Z,5.60
2019-02-20T05:35:30.236Z,7.00
2019-02-20T05:36:35.075Z,6.90
2019-02-20T05:37:40.141Z,7.00
2019-02-20T05:38:45.368Z,6.90
2019-02-20T05:39:50.159Z,7.00
2019-02-20T05:40:55.931Z,7.00
2019-02-20T05:42:00.780Z,6.90
2019-02-20T05:43:05.552Z,7.00
2019-02-20T05:44:11.231Z,7.00
2019-02-20T05:45:18.737Z,7.00
2019-02-20T05:46:25.819Z,6.90
2019-02-20T05:47:30.574Z,6.90
2019-02-20T05:48:39.007Z,6.90
2019-02-20T05:49:43.793Z,6.90
2019-02-20T05:50:48.587Z,6.90
2019-02-20T05:51:54.319Z,6.90
2019-02-20T05:52:59.083Z,6.90
2019-02-20T05:54:03.769Z,6.90
2019-02-20T05:55:11.183Z,6.80
2019-02-20T05:56:16.190Z,6.90
2019-02-20T05:57:21.167Z,6.90
2019-02-20T05:58:26.347Z,6.90
2019-02-20T05:59:32.352Z,6.90
2019-02-20T06:00:40.108Z,7.00
2019-02-20T06:01:44.867Z,6.90
2019-02-20T06:02:56.540Z,6.80
2019-02-20T06:04:01.425Z,6.80
2019-02-20T06:05:06.529Z,6.80
2019-02-20T06:06:14.172Z,6.80
2019-02-20T06:07:18.930Z,6.90
2019-02-20T06:08:23.653Z,6.80
2019-02-20T06:09:28.421Z,6.80
2019-02-20T06:10:33.239Z,6.80
2019-02-20T06:11:38.286Z,6.80
2019-02-20T06:12:43.063Z,6.80
2019-02-20T06:13:47.774Z,6.80
2019-02-20T06:14:53.965Z,6.80
2019-02-20T06:15:58.932Z,6.80
2019-02-20T06:17:03.954Z,6.80
2019-02-20T06:18:09.167Z,6.80
2019-02-20T06:19:14.249Z,6.90
2019-02-20T06:20:18.965Z,6.80
2019-02-20T06:21:23.806Z,6.90
2019-02-20T06:22:28.915Z,6.90
2019-02-20T06:23:33.703Z,7.00
2019-02-20T06:24:44.169Z,7.00
2019-02-20T06:25:45.005Z,7.00
2019-02-20T06:26:49.726Z,7.10
2019-02-20T06:27:54.746Z,7.00
2019-02-20T06:29:03.511Z,7.00
2019-02-20T06:30:08.895Z,7.00
2019-02-20T06:31:13.648Z,7.00
2019-02-20T06:32:18.731Z,6.90
2019-02-20T06:33:28.160Z,7.00
2019-02-20T06:34:32.990Z,6.90
2019-02-20T06:35:37.919Z,6.90
2019-02-20T06:36:42.938Z,6.90
2019-02-20T06:37:57.017Z,6.90
2019-02-20T06:39:02.454Z,6.90
2019-02-20T06:40:11.650Z,6.90
2019-02-20T06:41:17.864Z,6.90
2019-02-20T06:42:24.222Z,6.90
2019-02-20T06:43:30.061Z,6.90
2019-02-20T06:44:37.578Z,6.80
2019-02-20T06:45:47.086Z,6.60
2019-02-20T06:46:51.807Z,6.80
2019-02-20T06:47:59.762Z,6.80
2019-02-20T06:49:15.110Z,6.90
2019-02-20T06:50:22.598Z,6.80
2019-02-20T06:51:29.153Z,6.80
2019-02-20T06:52:34.162Z,6.80
2019-02-20T06:53:39.360Z,6.30
2019-02-20T06:54:53.706Z,6.80
2019-02-20T06:55:53.182Z,6.70
2019-02-20T06:57:01.638Z,6.70
2019-02-20T06:58:06.655Z,6.80
2019-02-20T06:59:16.419Z,6.80
2019-02-20T07:00:22.448Z,6.80
2019-02-20T07:01:30.531Z,6.80
2019-02-20T07:02:35.933Z,6.80
2019-02-20T07:03:40.913Z,6.80
2019-02-20T07:05:21.919Z,6.80
2019-02-20T07:07:18.335Z,6.70
2019-02-20T07:09:15.312Z,6.70
2019-02-20T07:10:56.612Z,6.80
2019-02-20T07:12:21.964Z,6.80
2019-02-20T07:13:52.185Z,6.70
2019-02-20T07:15:17.657Z,6.70
2019-02-20T07:17:16.705Z,6.70
2019-02-20T07:18:35.561Z,6.70
2019-02-20T07:20:02.752Z,6.70
2019-02-20T07:21:43.890Z,6.90
2019-02-20T07:23:09.580Z,6.80
2019-02-20T07:25:03.228Z,6.80
2019-02-20T07:27:10.191Z,6.80
2019-02-20T07:28:49.187Z,6.80
2019-02-20T07:30:02.610Z,6.90
2019-02-20T07:31:10.823Z,6.90
2019-02-20T07:32:18.744Z,6.90
2019-02-20T07:33:26.525Z,6.90
2019-02-20T07:34:32.281Z,6.90
2019-02-20T07:35:37.512Z,6.90
2019-02-20T07:36:44.017Z,6.90
2019-02-20T07:37:51.356Z,6.90
2019-02-20T07:39:00.387Z,6.90
2019-02-20T07:40:11.050Z,6.90
2019-02-20T07:41:17.696Z,6.90
2019-02-20T07:42:23.588Z,7.00
2019-02-20T07:43:29.578Z,7.00
2019-02-20T07:44:35.743Z,7.00
2019-02-20T07:45:41.604Z,6.90
2019-02-20T07:46:48.896Z,7.00
2019-02-20T07:47:53.929Z,6.90
2019-02-20T07:48:59.426Z,6.90
2019-02-20T07:50:07.964Z,6.80
2019-02-20T07:51:14.823Z,6.90
2019-02-20T07:52:24.551Z,6.90
2019-02-20T07:53:33.992Z,6.80
2019-02-20T07:54:40.419Z,7.70
2019-02-20T07:55:47.097Z,6.90
2019-02-20T07:56:58.414Z,6.90
2019-02-20T07:58:08.766Z,6.90
2019-02-20T07:59:13.718Z,7.00
2019-02-20T08:00:21.278Z,7.00
2019-02-20T08:01:26.520Z,6.90
2019-02-20T08:02:32.707Z,6.80
2019-02-20T08:03:39.344Z,7.30
2019-02-20T08:04:45.857Z,6.80
2019-02-20T08:05:55.000Z,7.00
2019-02-20T08:07:05.522Z,7.00
2019-02-20T08:08:12.967Z,7.10
2019-02-20T08:09:35.182Z,7.10
2019-02-20T08:10:42.219Z,7.10
2019-02-20T08:11:47.310Z,7.10
2019-02-20T08:12:53.597Z,7.30
2019-02-20T08:13:59.836Z,7.10
2019-02-20T08:15:05.251Z,7.10
2019-02-20T08:16:12.038Z,7.20
2019-02-20T08:17:18.338Z,7.10
2019-02-20T08:18:27.530Z,7.10
2019-02-20T08:19:34.219Z,7.10
2019-02-20T08:20:42.254Z,7.10
2019-02-20T08:21:47.248Z,7.10
2019-02-20T08:22:52.198Z,7.10
2019-02-20T08:23:58.059Z,7.40
2019-02-20T08:25:12.287Z,7.20
2019-02-20T08:26:15.834Z,7.20
2019-02-20T08:27:22.789Z,7.10
2019-02-20T08:28:37.243Z,7.20
2019-02-20T08:29:55.605Z,7.20
2019-02-20T08:31:06.788Z,7.20
2019-02-20T08:32:12.876Z,7.20
2019-02-20T08:33:21.007Z,7.20
2019-02-20T08:34:28.788Z,7.20
2019-02-20T08:35:34.842Z,7.20
2019-02-20T08:36:40.726Z,7.30
2019-02-20T08:37:46.350Z,7.30
2019-02-20T08:38:52.086Z,7.40
2019-02-20T08:40:00.594Z,7.40
2019-02-20T08:41:07.773Z,7.40
2019-02-20T08:42:13.172Z,7.50
2019-02-20T08:43:28.674Z,7.40
2019-02-20T08:44:33.682Z,7.50
2019-02-20T08:45:57.574Z,7.60
2019-02-20T08:47:09.312Z,7.60
2019-02-20T08:48:14.720Z,7.70
2019-02-20T08:49:20.866Z,7.80
2019-02-20T08:50:28.340Z,7.80
2019-02-20T08:51:33.493Z,8.20
2019-02-20T08:52:38.497Z,7.90
2019-02-20T08:53:46.714Z,8.00
2019-02-20T08:54:52.061Z,8.00
2019-02-20T08:56:07.655Z,8.10
2019-02-20T08:57:12.771Z,8.10
2019-02-20T08:58:19.186Z,8.00
2019-02-20T08:59:24.987Z,8.10
2019-02-20T09:00:30.210Z,7.50
2019-02-20T09:01:43.095Z,8.20
2019-02-20T09:02:48.347Z,8.30
2019-02-20T09:03:53.595Z,8.30
2019-02-20T09:04:59.099Z,8.30
2019-02-20T09:06:07.041Z,9.10
2019-02-20T09:07:20.833Z,8.40
2019-02-20T09:08:27.337Z,8.50
2019-02-20T09:09:37.713Z,8.40
2019-02-20T09:10:48.175Z,8.10
2019-02-20T09:12:03.103Z,8.60
2019-02-20T09:13:05.557Z,8.60
2019-02-20T09:14:11.614Z,8.70
2019-02-20T09:15:21.594Z,8.70
2019-02-20T09:16:31.871Z,8.70
2019-02-20T09:17:37.673Z,9.30
2019-02-20T09:18:51.843Z,8.80
2019-02-20T09:20:00.147Z,8.80
2019-02-20T09:21:05.629Z,8.80
2019-02-20T09:22:11.135Z,8.80
2019-02-20T09:23:20.507Z,8.90
2019-02-20T09:24:27.642Z,8.90
2019-02-20T09:25:41.318Z,8.90
2019-02-20T09:26:42.439Z,8.90
2019-02-20T09:27:55.239Z,8.90
2019-02-20T09:29:05.388Z,9.00
2019-02-20T09:30:16.963Z,9.30
2019-02-20T09:31:25.300Z,9.10
2019-02-20T09:32:33.863Z,9.10
2019-02-20T09:33:41.622Z,9.20
2019-02-20T09:34:54.404Z,9.30
2019-02-20T09:36:06.136Z,9.30
2019-02-20T09:37:11.277Z,9.20
2019-02-20T09:38:16.381Z,9.20
2019-02-20T09:39:39.992Z,9.30
2019-02-20T09:40:46.017Z,9.00
2019-02-20T09:41:58.284Z,9.30
2019-02-20T09:43:34.209Z,9.30
2019-02-20T09:44:47.278Z,9.60
2019-02-20T09:45:52.593Z,9.20
2019-02-20T09:47:00.211Z,9.50
2019-02-20T09:48:21.609Z,9.50
2019-02-20T09:49:28.931Z,9.50
2019-02-20T09:50:36.822Z,9.60
2019-02-20T09:51:48.073Z,9.70
2019-02-20T09:52:59.999Z,9.70
2019-02-20T09:54:25.850Z,9.10
2019-02-20T09:55:36.050Z,9.80
2019-02-20T09:56:45.373Z,9.80
2019-02-20T09:58:16.755Z,9.70
2019-02-20T09:59:22.690Z,9.70
2019-02-20T10:00:31.318Z,9.70
2019-02-20T10:01:39.097Z,9.60
2019-02-20T10:02:47.402Z,9.50
2019-02-20T10:03:55.027Z,9.70
2019-02-20T10:05:11.798Z,9.50
2019-02-20T10:06:21.307Z,9.50
2019-02-20T10:07:31.503Z,9.60
2019-02-20T10:08:39.088Z,9.60
2019-02-20T10:09:52.879Z,9.60
2019-02-20T10:11:03.737Z,9.60
2019-02-20T10:12:08.709Z,9.60
2019-02-20T10:13:13.590Z,9.70
2019-02-20T10:14:21.438Z,9.60
2019-02-20T10:15:33.359Z,9.90
2019-02-20T10:16:39.433Z,9.70
2019-02-20T10:17:46.817Z,9.70
2019-02-20T10:18:55.284Z,10.10
2019-02-20T10:20:13.891Z,9.70
2019-02-20T10:21:39.096Z,9.70
2019-02-20T10:22:49.923Z,9.80
2019-02-20T10:23:59.145Z,9.80
2019-02-20T10:25:07.932Z,9.90
2019-02-20T10:26:13.681Z,9.90
2019-02-20T10:27:26.798Z,9.90
2019-02-20T10:28:34.213Z,10.00
2019-02-20T10:29:59.464Z,10.10
2019-02-20T10:31:07.456Z,10.10
2019-02-20T10:32:12.327Z,10.20
2019-02-20T10:33:24.641Z,10.20
2019-02-20T10:34:29.997Z,10.30
2019-02-20T10:35:43.132Z,10.30
2019-02-20T10:36:52.580Z,10.30
2019-02-20T10:37:57.566Z,10.40
2019-02-20T10:39:02.516Z,10.40
2019-02-20T10:40:12.330Z,10.50
2019-02-20T10:41:32.650Z,10.50
2019-02-20T10:42:39.577Z,10.50
2019-02-20T10:43:50.924Z,10.50
2019-02-20T10:44:59.727Z,10.60
2019-02-20T10:46:08.275Z,10.60
2019-02-20T10:47:14.319Z,10.60
2019-02-20T10:48:22.798Z,10.60
2019-02-20T10:49:31.677Z,10.70
2019-02-20T10:50:39.465Z,10.70
2019-02-20T10:51:49.803Z,10.80
2019-02-20T10:52:57.454Z,10.80
2019-02-20T10:54:03.408Z,10.90
2019-02-20T10:55:14.588Z,10.90
2019-02-20T10:56:22.191Z,11.00
2019-02-20T10:57:31.818Z,11.10
2019-02-20T10:58:36.953Z,11.10
2019-02-20T10:59:48.067Z,11.20
2019-02-20T11:00:56.052Z,11.20
2019-02-20T11:03:34.643Z,11.40
2019-02-20T11:04:51.698Z,11.50
2019-02-20T11:06:07.200Z,11.50
2019-02-20T11:07:12.318Z,11.60
2019-02-20T11:08:26.811Z,11.70
2019-02-20T11:09:34.054Z,11.70
2019-02-20T11:10:40.108Z,11.70
2019-02-20T11:11:45.218Z,11.80
2019-02-20T11:12:52.327Z,11.70
2019-02-20T11:13:58.867Z,11.50
2019-02-20T11:15:05.710Z,11.90
2019-02-20T11:16:12.915Z,11.90
2019-02-20T11:17:26.418Z,11.90
2019-02-20T11:18:32.126Z,12.00
2019-02-20T11:21:10.093Z,12.20
2019-02-20T11:22:14.636Z,12.10
2019-02-20T11:23:25.115Z,12.10
2019-02-20T11:24:31.203Z,12.20
2019-02-20T11:25:39.362Z,12.20
2019-02-20T11:26:54.045Z,12.30
2019-02-20T11:28:26.532Z,12.30
2019-02-20T11:29:26.396Z,12.40
2019-02-20T11:30:34.816Z,12.40
2019-02-20T11:31:40.688Z,12.30
2019-02-20T11:32:50.745Z,12.30
2019-02-20T11:34:04.844Z,12.30
2019-02-20T11:35:15.248Z,12.30
2019-02-20T11:36:20.188Z,12.30
2019-02-20T11:37:33.949Z,12.50
2019-02-20T11:38:46.137Z,12.60
2019-02-20T11:40:03.374Z,12.70
2019-02-20T11:41:09.162Z,12.90
2019-02-20T11:42:14.159Z,12.90
2019-02-20T11:43:31.675Z,12.90
2019-02-20T11:44:39.710Z,13.00
2019-02-20T11:45:47.798Z,12.90
2019-02-20T11:46:54.194Z,12.80
2019-02-20T11:48:03.390Z,12.90
2019-02-20T11:49:13.651Z,12.70
2019-02-20T11:50:19.256Z,12.70
2019-02-20T11:51:32.143Z,12.70
2019-02-20T11:52:45.184Z,12.60
2019-02-20T11:53:50.410Z,12.60
2019-02-20T11:55:07.451Z,12.50
2019-02-20T11:56:16.586Z,12.60
2019-02-20T11:57:23.098Z,12.60
2019-02-20T11:58:35.200Z,12.60
2019-02-20T11:59:45.307Z,12.60
2019-02-20T12:00:58.371Z,12.50
2019-02-20T12:02:10.678Z,12.50
2019-02-20T12:03:17.011Z,12.60
2019-02-20T12:04:26.050Z,12.60
2019-02-20T12:05:43.245Z,12.70
2019-02-20T12:06:54.396Z,12.80
2019-02-20T12:08:18.443Z,13.00
2019-02-20T12:09:25.836Z,13.50
2019-02-20T12:10:34.266Z,14.20
2019-02-20T12:11:46.800Z,14.70
2019-02-20T12:13:01.587Z,15.40
2019-02-20T12:14:12.398Z,16.30
2019-02-20T12:15:17.688Z,17.10
2019-02-20T12:16:23.429Z,17.80
2019-02-20T12:17:33.702Z,18.40
2019-02-20T12:18:43.207Z,18.80
2019-02-20T12:19:53.346Z,19.00
2019-02-20T12:21:03.800Z,19.10
2019-02-20T12:22:08.946Z,19.10
2019-02-20T12:23:21.079Z,19.50
2019-02-20T12:24:28.731Z,19.70
2019-02-20T12:25:34.017Z,19.70
2019-02-20T12:26:39.785Z,19.60
2019-02-20T12:27:49.719Z,19.80
2019-02-20T12:28:56.607Z,19.80
2019-02-20T12:30:07.156Z,19.90
2019-02-20T12:31:12.670Z,20.00
2019-02-20T12:32:19.981Z,20.00
2019-02-20T12:33:26.548Z,19.90
2019-02-20T12:34:35.174Z,19.90
2019-02-20T12:35:47.196Z,20.10
2019-02-20T12:36:52.804Z,20.60
2019-02-20T12:37:59.672Z,20.10
2019-02-20T12:39:07.008Z,19.80
2019-02-20T12:40:21.371Z,19.40
2019-02-20T12:41:30.252Z,19.10
2019-02-20T12:42:37.673Z,18.80
2019-02-20T12:43:48.128Z,18.50
2019-02-20T12:45:10.509Z,18.40
2019-02-20T12:46:42.208Z,18.20
2019-02-20T12:47:48.534Z,18.10
2019-02-20T12:48:57.575Z,18.40
2019-02-20T12:50:05.979Z,18.60
2019-02-20T12:51:14.620Z,18.80
2019-02-20T12:52:19.538Z,18.80
2019-02-20T12:53:24.311Z,19.00
2019-02-20T12:54:29.535Z,19.10
2019-02-20T12:55:50.910Z,19.20
2019-02-20T12:56:55.869Z,19.20
2019-02-20T12:58:01.015Z,19.20
2019-02-20T12:59:08.176Z,19.20
2019-02-20T13:00:15.203Z,19.10
2019-02-20T13:01:20.185Z,18.60
2019-02-20T13:02:25.345Z,18.30
2019-02-20T13:03:32.324Z,18.20
2019-02-20T13:04:37.551Z,18.20
2019-02-20T13:05:42.568Z,18.20
2019-02-20T13:06:59.579Z,18.80
2019-02-20T13:08:00.374Z,17.90
2019-02-20T13:09:08.085Z,17.90
2019-02-20T13:10:18.335Z,17.90
2019-02-20T13:11:23.406Z,17.90
2019-02-20T13:12:28.180Z,17.90
2019-02-20T13:13:33.400Z,18.00
2019-02-20T13:14:45.218Z,18.00
2019-02-20T13:15:50.120Z,17.90
2019-02-20T13:16:54.941Z,17.90
2019-02-20T13:18:01.715Z,17.80
2019-02-20T13:19:06.751Z,17.80
2019-02-20T13:20:21.322Z,18.20
2019-02-20T13:21:26.479Z,18.70
2019-02-20T13:22:32.255Z,18.80
2019-02-20T13:23:46.202Z,19.20
2019-02-20T13:24:54.190Z,19.30
2019-02-20T13:25:59.261Z,19.20
2019-02-20T13:27:08.614Z,19.20
2019-02-20T13:28:11.699Z,19.10
2019-02-20T13:29:19.006Z,19.00
2019-02-20T13:30:28.918Z,18.70
2019-02-20T13:31:37.697Z,18.50
2019-02-20T13:32:44.077Z,18.30
2019-02-20T13:33:49.488Z,18.00
2019-02-20T13:34:57.733Z,17.70
2019-02-20T13:36:03.020Z,17.40
2019-02-20T13:37:10.516Z,17.10
2019-02-20T13:38:16.402Z,16.90
2019-02-20T13:39:21.873Z,16.60
2019-02-20T13:40:29.764Z,16.50
2019-02-20T13:41:38.751Z,16.30
2019-02-20T13:42:43.469Z,16.20
2019-02-20T13:43:49.249Z,16.00
2019-02-20T13:44:57.002Z,15.90
2019-02-20T13:46:02.021Z,15.80
2019-02-20T13:47:07.002Z,15.80
2019-02-20T13:48:17.111Z,15.80
2019-02-20T13:49:23.772Z,15.80
2019-02-20T13:50:29.083Z,15.80
2019-02-20T13:51:37.230Z,15.70
2019-02-20T13:52:42.518Z,15.60
2019-02-20T13:53:47.377Z,16.30
2019-02-20T13:54:56.866Z,16.50
2019-02-20T13:56:01.895Z,15.50
2019-02-20T13:57:06.844Z,15.50
2019-02-20T13:58:12.187Z,15.50
2019-02-20T13:59:20.190Z,15.30
2019-02-20T14:00:25.204Z,15.30
2019-02-20T14:01:29.999Z,15.20
2019-02-20T14:02:36.799Z,15.70
2019-02-20T14:03:43.235Z,15.10
2019-02-20T14:04:47.970Z,15.10
2019-02-20T14:05:55.798Z,15.20
2019-02-20T14:07:01.180Z,15.20
2019-02-20T14:08:10.743Z,15.20
2019-02-20T14:09:18.101Z,15.20
2019-02-20T14:10:25.283Z,15.10
2019-02-20T14:11:30.250Z,15.30
2019-02-20T14:12:35.923Z,15.40
2019-02-20T14:13:40.953Z,15.20
2019-02-20T14:14:45.818Z,15.20
2019-02-20T14:15:50.824Z,15.20
2019-02-20T14:17:00.991Z,15.20
2019-02-20T14:18:07.022Z,15.30
2019-02-20T14:19:12.032Z,15.30
2019-02-20T14:20:23.044Z,15.30
2019-02-20T14:21:37.354Z,15.40
2019-02-20T14:22:48.048Z,15.20
2019-02-20T14:23:53.443Z,15.10
2019-02-20T14:24:58.258Z,15.00
2019-02-20T14:26:08.003Z,15.00
2019-02-20T14:27:12.781Z,14.90
2019-02-20T14:28:25.179Z,14.90
2019-02-20T14:29:30.030Z,14.90
2019-02-20T14:30:46.160Z,14.90
2019-02-20T14:31:51.186Z,14.90
2019-02-20T14:33:05.153Z,14.90
2019-02-20T14:34:10.871Z,14.80
2019-02-20T14:35:19.037Z,14.80
2019-02-20T14:36:30.034Z,14.70
2019-02-20T14:37:39.260Z,14.60
2019-02-20T14:38:46.200Z,14.90
2019-02-20T14:39:52.158Z,14.60
2019-02-20T14:40:57.236Z,14.60
2019-02-20T14:42:02.611Z,14.50
2019-02-20T14:43:08.091Z,14.50
2019-02-20T14:44:13.171Z,14.50
2019-02-20T14:45:23.095Z,14.40
2019-02-20T14:46:28.071Z,14.40
2019-02-20T14:47:32.948Z,15.80
2019-02-20T14:48:38.010Z,14.50
2019-02-20T14:49:45.146Z,14.40
2019-02-20T14:50:49.919Z,14.40
2019-02-20T14:51:55.528Z,14.30
2019-02-20T14:53:00.691Z,14.40
2019-02-20T14:54:05.489Z,14.40
2019-02-20T14:55:11.437Z,14.40
2019-02-20T14:56:23.982Z,14.30
2019-02-20T14:57:28.865Z,14.30
2019-02-20T14:58:33.684Z,14.40
2019-02-20T14:59:43.187Z,14.50